sensor_id;sensor_type;location;lat;lon;timestamp;pressure;altitude;pressure_sealevel;temperature;humidity
10652;BME280;5374;42.742;23.266;2023-05-03T00:02:02;95759.41;;;13.19;43.47
10652;BME280;5374;42.742;23.266;2023-05-03T00:04:51;95757.03;;;13.23;43.34
10652;BME280;5374;42.742;23.266;2023-05-03T00:07:41;95754.31;;;13.18;43.32
10652;BME280;5374;42.742;23.266;2023-05-03T00:10:29;95754.72;;;12.99;43.58
10652;BME280;5374;42.742;23.266;2023-05-03T00:13:16;95757.44;;;13.05;43.24
10652;BME280;5374;42.742;23.266;2023-05-03T00:16:03;95749.13;;;13.01;43.33
10652;BME280;5374;42.742;23.266;2023-05-03T00:18:52;95763.06;;;13.13;43.17
10652;BME280;5374;42.742;23.266;2023-05-03T00:21:39;95763.81;;;13.04;43.51
10652;BME280;5374;42.742;23.266;2023-05-03T00:24:26;95757.88;;;12.96;43.47
10652;BME280;5374;42.742;23.266;2023-05-03T00:27:16;95754.50;;;13.06;43.28
10652;BME280;5374;42.742;23.266;2023-05-03T00:30:04;95761.34;;;12.97;43.52
10652;BME280;5374;42.742;23.266;2023-05-03T00:32:52;95759.00;;;13.00;43.58
10652;BME280;5374;42.742;23.266;2023-05-03T00:35:40;95733.25;;;12.79;43.70
10652;BME280;5374;42.742;23.266;2023-05-03T00:38:27;95760.72;;;12.80;44.26
10652;BME280;5374;42.742;23.266;2023-05-03T00:41:15;95741.91;;;12.59;43.99
10652;BME280;5374;42.742;23.266;2023-05-03T00:44:02;95729.63;;;12.58;44.08
10652;BME280;5374;42.742;23.266;2023-05-03T00:46:49;95759.44;;;12.87;43.77
10652;BME280;5374;42.742;23.266;2023-05-03T00:49:37;95747.38;;;12.80;43.78
10652;BME280;5374;42.742;23.266;2023-05-03T00:52:26;95763.16;;;12.86;43.98
10652;BME280;5374;42.742;23.266;2023-05-03T00:55:14;95774.28;;;12.78;44.16
10652;BME280;5374;42.742;23.266;2023-05-03T00:58:01;95762.06;;;12.82;44.03
10652;BME280;5374;42.742;23.266;2023-05-03T01:00:49;95767.34;;;12.77;44.29
10652;BME280;5374;42.742;23.266;2023-05-03T01:03:37;95759.09;;;12.79;44.32
10652;BME280;5374;42.742;23.266;2023-05-03T01:06:31;95763.06;;;12.76;44.31
10652;BME280;5374;42.742;23.266;2023-05-03T01:09:30;95771.81;;;12.72;44.52
10652;BME280;5374;42.742;23.266;2023-05-03T01:12:26;95761.41;;;12.65;44.53
10652;BME280;5374;42.742;23.266;2023-05-03T01:15:24;95745.44;;;12.70;44.81
10652;BME280;5374;42.742;23.266;2023-05-03T01:18:20;95746.50;;;12.69;44.55
10652;BME280;5374;42.742;23.266;2023-05-03T01:21:09;95739.56;;;12.68;44.19
10652;BME280;5374;42.742;23.266;2023-05-03T01:24:02;95721.25;;;12.45;44.65
10652;BME280;5374;42.742;23.266;2023-05-03T01:26:51;95750.19;;;12.63;44.75
10652;BME280;5374;42.742;23.266;2023-05-03T01:29:38;95754.41;;;12.59;44.92
10652;BME280;5374;42.742;23.266;2023-05-03T01:32:33;95756.59;;;12.62;44.68
10652;BME280;5374;42.742;23.266;2023-05-03T01:35:27;95748.94;;;12.44;45.08
10652;BME280;5374;42.742;23.266;2023-05-03T01:38:16;95750.28;;;12.41;45.40
10652;BME280;5374;42.742;23.266;2023-05-03T01:41:08;95739.31;;;12.38;45.42
10652;BME280;5374;42.742;23.266;2023-05-03T01:43:58;95741.75;;;12.39;45.48
10652;BME280;5374;42.742;23.266;2023-05-03T01:46:46;95738.22;;;12.33;45.78
10652;BME280;5374;42.742;23.266;2023-05-03T01:49:34;95732.53;;;12.25;45.95
10652;BME280;5374;42.742;23.266;2023-05-03T01:52:23;95714.13;;;12.18;45.99
10652;BME280;5374;42.742;23.266;2023-05-03T01:55:10;95720.44;;;12.12;46.50
10652;BME280;5374;42.742;23.266;2023-05-03T01:57:57;95737.72;;;12.10;46.27
10652;BME280;5374;42.742;23.266;2023-05-03T02:00:47;95730.09;;;12.18;46.47
10652;BME280;5374;42.742;23.266;2023-05-03T02:03:34;95684.50;;;11.83;46.72
10652;BME280;5374;42.742;23.266;2023-05-03T02:06:23;95730.34;;;11.90;47.44
10652;BME280;5374;42.742;23.266;2023-05-03T02:09:11;95715.50;;;11.94;47.33
10652;BME280;5374;42.742;23.266;2023-05-03T02:11:59;95688.28;;;11.87;47.17
10652;BME280;5374;42.742;23.266;2023-05-03T02:14:46;95711.22;;;11.93;47.33
10652;BME280;5374;42.742;23.266;2023-05-03T02:17:34;95682.09;;;11.81;47.51
10652;BME280;5374;42.742;23.266;2023-05-03T02:20:22;95712.59;;;12.01;47.49
10652;BME280;5374;42.742;23.266;2023-05-03T02:23:09;95717.94;;;12.01;47.67
10652;BME280;5374;42.742;23.266;2023-05-03T02:25:56;95689.88;;;11.88;47.73
10652;BME280;5374;42.742;23.266;2023-05-03T02:28:43;95696.38;;;12.02;47.46
10652;BME280;5374;42.742;23.266;2023-05-03T02:31:31;95704.94;;;12.04;47.87
10652;BME280;5374;42.742;23.266;2023-05-03T02:34:19;95713.41;;;12.01;48.15
10652;BME280;5374;42.742;23.266;2023-05-03T02:37:06;95717.19;;;12.05;48.01
10652;BME280;5374;42.742;23.266;2023-05-03T02:39:56;95701.88;;;11.90;48.03
10652;BME280;5374;42.742;23.266;2023-05-03T02:42:43;95709.38;;;11.98;48.11
10652;BME280;5374;42.742;23.266;2023-05-03T02:45:30;95716.63;;;12.03;48.02
10652;BME280;5374;42.742;23.266;2023-05-03T02:48:18;95720.91;;;12.04;48.22
10652;BME280;5374;42.742;23.266;2023-05-03T02:51:06;95720.84;;;11.99;48.32
10652;BME280;5374;42.742;23.266;2023-05-03T02:53:54;95723.16;;;11.90;48.60
10652;BME280;5374;42.742;23.266;2023-05-03T02:56:42;95723.28;;;11.79;48.69
10652;BME280;5374;42.742;23.266;2023-05-03T02:59:31;95690.75;;;11.72;48.53
10652;BME280;5374;42.742;23.266;2023-05-03T03:02:19;95573.47;;;10.98;48.59
10652;BME280;5374;42.742;23.266;2023-05-03T03:05:07;95706.91;;;11.87;48.72
10652;BME280;5374;42.742;23.266;2023-05-03T03:07:56;95720.63;;;11.79;49.20
10652;BME280;5374;42.742;23.266;2023-05-03T03:10:45;95728.19;;;11.87;49.30
10652;BME280;5374;42.742;23.266;2023-05-03T03:13:35;95672.09;;;11.45;49.70
10652;BME280;5374;42.742;23.266;2023-05-03T03:16:25;95722.75;;;11.77;49.47
10652;BME280;5374;42.742;23.266;2023-05-03T03:19:23;95609.50;;;10.88;49.38
10652;BME280;5374;42.742;23.266;2023-05-03T03:22:10;95725.47;;;11.82;49.59
10652;BME280;5374;42.742;23.266;2023-05-03T03:24:58;95726.25;;;11.82;49.49
10652;BME280;5374;42.742;23.266;2023-05-03T03:27:45;95729.19;;;11.81;49.71
10652;BME280;5374;42.742;23.266;2023-05-03T03:30:33;95731.75;;;11.76;50.26
10652;BME280;5374;42.742;23.266;2023-05-03T03:33:20;95720.38;;;11.58;50.33
10652;BME280;5374;42.742;23.266;2023-05-03T03:36:07;95735.34;;;11.64;50.34
10652;BME280;5374;42.742;23.266;2023-05-03T03:38:54;95740.19;;;11.68;50.49
10652;BME280;5374;42.742;23.266;2023-05-03T03:41:43;95756.63;;;11.64;50.93
10652;BME280;5374;42.742;23.266;2023-05-03T03:44:30;95754.72;;;11.60;51.21
10652;BME280;5374;42.742;23.266;2023-05-03T03:47:17;95746.97;;;11.58;51.45
10652;BME280;5374;42.742;23.266;2023-05-03T03:50:05;95759.84;;;11.67;51.08
10652;BME280;5374;42.742;23.266;2023-05-03T03:52:52;95757.69;;;11.63;51.32
10652;BME280;5374;42.742;23.266;2023-05-03T03:55:40;95742.16;;;11.55;51.38
10652;BME280;5374;42.742;23.266;2023-05-03T03:58:28;95757.50;;;11.70;51.51
10652;BME280;5374;42.742;23.266;2023-05-03T04:01:16;95760.47;;;11.74;51.26
10652;BME280;5374;42.742;23.266;2023-05-03T04:04:03;95771.13;;;11.74;51.25
10652;BME280;5374;42.742;23.266;2023-05-03T04:06:50;95769.50;;;11.73;51.24
10652;BME280;5374;42.742;23.266;2023-05-03T04:09:37;95758.81;;;11.68;51.18
10652;BME280;5374;42.742;23.266;2023-05-03T04:12:24;95769.50;;;11.73;51.30
10652;BME280;5374;42.742;23.266;2023-05-03T04:15:13;95775.38;;;11.75;51.41
10652;BME280;5374;42.742;23.266;2023-05-03T04:18:00;95774.31;;;11.76;51.65
10652;BME280;5374;42.742;23.266;2023-05-03T04:20:47;95784.00;;;11.82;51.13
10652;BME280;5374;42.742;23.266;2023-05-03T04:23:34;95780.91;;;11.90;50.95
10652;BME280;5374;42.742;23.266;2023-05-03T04:26:22;95791.25;;;11.86;51.22
10652;BME280;5374;42.742;23.266;2023-05-03T04:29:09;95785.22;;;11.74;51.52
10652;BME280;5374;42.742;23.266;2023-05-03T04:32:09;95776.47;;;11.57;51.46
10652;BME280;5374;42.742;23.266;2023-05-03T04:35:00;95812.06;;;11.73;51.53
10652;BME280;5374;42.742;23.266;2023-05-03T04:37:54;95806.16;;;11.87;51.39
10652;BME280;5374;42.742;23.266;2023-05-03T04:40:41;95813.59;;;11.85;51.70
10652;BME280;5374;42.742;23.266;2023-05-03T04:43:29;95820.00;;;11.68;52.94
10652;BME280;5374;42.742;23.266;2023-05-03T04:46:17;95815.56;;;11.56;53.26
10652;BME280;5374;42.742;23.266;2023-05-03T04:49:06;95815.06;;;11.76;52.74
10652;BME280;5374;42.742;23.266;2023-05-03T04:51:56;95827.75;;;11.91;52.68
10652;BME280;5374;42.742;23.266;2023-05-03T04:54:47;95837.03;;;11.88;52.93
10652;BME280;5374;42.742;23.266;2023-05-03T04:57:35;95834.78;;;11.80;53.41
10652;BME280;5374;42.742;23.266;2023-05-03T05:00:22;95821.69;;;11.57;54.92
10652;BME280;5374;42.742;23.266;2023-05-03T05:03:14;95838.38;;;11.52;57.28
10652;BME280;5374;42.742;23.266;2023-05-03T05:06:03;95838.72;;;11.56;56.18
10652;BME280;5374;42.742;23.266;2023-05-03T05:08:51;95845.50;;;11.47;59.11
10652;BME280;5374;42.742;23.266;2023-05-03T05:11:38;95845.94;;;11.60;56.84
10652;BME280;5374;42.742;23.266;2023-05-03T05:14:26;95853.69;;;11.62;57.43
10652;BME280;5374;42.742;23.266;2023-05-03T05:17:13;95863.59;;;11.67;57.46
10652;BME280;5374;42.742;23.266;2023-05-03T05:20:00;95861.16;;;11.82;57.85
10652;BME280;5374;42.742;23.266;2023-05-03T05:22:50;95861.56;;;11.74;56.88
10652;BME280;5374;42.742;23.266;2023-05-03T05:25:37;95868.41;;;11.48;61.04
10652;BME280;5374;42.742;23.266;2023-05-03T05:28:24;95860.81;;;11.40;60.77
10652;BME280;5374;42.742;23.266;2023-05-03T05:31:11;95866.75;;;11.63;61.00
10652;BME280;5374;42.742;23.266;2023-05-03T05:33:58;95864.00;;;11.58;64.82
10652;BME280;5374;42.742;23.266;2023-05-03T05:36:46;95867.31;;;11.65;62.64
10652;BME280;5374;42.742;23.266;2023-05-03T05:39:34;95872.22;;;11.74;62.90
10652;BME280;5374;42.742;23.266;2023-05-03T05:42:21;95864.75;;;11.76;64.47
10652;BME280;5374;42.742;23.266;2023-05-03T05:45:09;95864.78;;;11.92;63.30
10652;BME280;5374;42.742;23.266;2023-05-03T05:47:56;95844.47;;;11.86;62.38
10652;BME280;5374;42.742;23.266;2023-05-03T05:50:44;95863.50;;;12.22;60.52
10652;BME280;5374;42.742;23.266;2023-05-03T05:53:31;95863.38;;;12.33;59.75
10652;BME280;5374;42.742;23.266;2023-05-03T05:56:20;95855.69;;;12.37;59.27
10652;BME280;5374;42.742;23.266;2023-05-03T05:59:07;95846.63;;;12.11;59.04
10652;BME280;5374;42.742;23.266;2023-05-03T06:01:55;95859.88;;;12.06;58.96
10652;BME280;5374;42.742;23.266;2023-05-03T06:04:44;95867.47;;;11.97;59.04
10652;BME280;5374;42.742;23.266;2023-05-03T06:07:32;95859.78;;;12.01;58.71
10652;BME280;5374;42.742;23.266;2023-05-03T06:10:19;95851.22;;;11.94;59.83
10652;BME280;5374;42.742;23.266;2023-05-03T06:13:08;95856.72;;;12.09;58.67
10652;BME280;5374;42.742;23.266;2023-05-03T06:15:56;95848.66;;;11.82;62.19
10652;BME280;5374;42.742;23.266;2023-05-03T06:18:43;95853.31;;;11.75;61.78
10652;BME280;5374;42.742;23.266;2023-05-03T06:21:30;95847.22;;;11.75;61.07
10652;BME280;5374;42.742;23.266;2023-05-03T06:24:18;95862.84;;;11.88;60.08
10652;BME280;5374;42.742;23.266;2023-05-03T06:27:06;95847.22;;;11.75;60.06
10652;BME280;5374;42.742;23.266;2023-05-03T06:29:54;95870.09;;;11.92;60.56
10652;BME280;5374;42.742;23.266;2023-05-03T06:32:41;95868.41;;;12.08;59.04
10652;BME280;5374;42.742;23.266;2023-05-03T06:35:30;95861.09;;;12.20;59.25
10652;BME280;5374;42.742;23.266;2023-05-03T06:38:17;95847.84;;;12.25;58.26
10652;BME280;5374;42.742;23.266;2023-05-03T06:41:04;95841.38;;;12.16;58.64
10652;BME280;5374;42.742;23.266;2023-05-03T06:43:51;95856.25;;;12.39;57.63
10652;BME280;5374;42.742;23.266;2023-05-03T06:46:45;95848.53;;;12.43;57.30
10652;BME280;5374;42.742;23.266;2023-05-03T06:49:32;95836.31;;;12.42;58.01
10652;BME280;5374;42.742;23.266;2023-05-03T06:52:20;95828.25;;;12.37;58.24
10652;BME280;5374;42.742;23.266;2023-05-03T06:55:07;95828.84;;;12.44;58.34
10652;BME280;5374;42.742;23.266;2023-05-03T06:57:54;95819.25;;;12.43;58.43
10652;BME280;5374;42.742;23.266;2023-05-03T07:00:42;95819.06;;;12.49;57.33
10652;BME280;5374;42.742;23.266;2023-05-03T07:03:30;95819.41;;;12.58;57.23
10652;BME280;5374;42.742;23.266;2023-05-03T07:06:18;95823.66;;;12.86;56.15
10652;BME280;5374;42.742;23.266;2023-05-03T07:09:07;95800.94;;;12.78;55.88
10652;BME280;5374;42.742;23.266;2023-05-03T07:11:54;95830.22;;;13.05;54.63
10652;BME280;5374;42.742;23.266;2023-05-03T07:14:42;95803.81;;;13.04;54.79
10652;BME280;5374;42.742;23.266;2023-05-03T07:17:29;95820.19;;;13.17;54.53
10652;BME280;5374;42.742;23.266;2023-05-03T07:20:17;95828.81;;;12.97;54.63
10652;BME280;5374;42.742;23.266;2023-05-03T07:23:04;95839.41;;;12.92;55.14
10652;BME280;5374;42.742;23.266;2023-05-03T07:25:52;95818.38;;;12.59;56.38
10652;BME280;5374;42.742;23.266;2023-05-03T07:28:40;95827.63;;;12.83;55.68
10652;BME280;5374;42.742;23.266;2023-05-03T07:31:27;95813.41;;;13.05;55.36
10652;BME280;5374;42.742;23.266;2023-05-03T07:34:14;95825.69;;;13.11;55.82
10652;BME280;5374;42.742;23.266;2023-05-03T07:37:03;95833.81;;;13.21;55.18
10652;BME280;5374;42.742;23.266;2023-05-03T07:39:50;95841.63;;;13.00;56.25
10652;BME280;5374;42.742;23.266;2023-05-03T07:42:37;95842.06;;;12.87;56.94
10652;BME280;5374;42.742;23.266;2023-05-03T07:45:24;95830.13;;;13.27;55.57
10652;BME280;5374;42.742;23.266;2023-05-03T07:48:11;95828.66;;;13.46;55.33
10652;BME280;5374;42.742;23.266;2023-05-03T07:50:59;95828.69;;;13.51;55.55
10652;BME280;5374;42.742;23.266;2023-05-03T07:53:47;95828.47;;;13.63;56.04
10652;BME280;5374;42.742;23.266;2023-05-03T07:56:34;95831.59;;;13.50;55.67
10652;BME280;5374;42.742;23.266;2023-05-03T07:59:22;95835.66;;;13.62;56.31
10652;BME280;5374;42.742;23.266;2023-05-03T08:02:09;95826.13;;;13.72;55.86
10652;BME280;5374;42.742;23.266;2023-05-03T08:04:56;95809.59;;;13.75;55.79
10652;BME280;5374;42.742;23.266;2023-05-03T08:07:44;95823.47;;;13.82;55.80
10652;BME280;5374;42.742;23.266;2023-05-03T08:10:32;95833.19;;;13.98;55.32
10652;BME280;5374;42.742;23.266;2023-05-03T08:13:22;95849.22;;;13.98;55.25
10652;BME280;5374;42.742;23.266;2023-05-03T08:16:09;95847.63;;;14.07;55.62
10652;BME280;5374;42.742;23.266;2023-05-03T08:18:56;95843.31;;;14.01;55.42
10652;BME280;5374;42.742;23.266;2023-05-03T08:21:43;95833.22;;;14.08;55.69
10652;BME280;5374;42.742;23.266;2023-05-03T08:24:31;95795.16;;;13.71;55.63
10652;BME280;5374;42.742;23.266;2023-05-03T08:27:21;95847.94;;;14.26;54.77
10652;BME280;5374;42.742;23.266;2023-05-03T08:30:09;95848.63;;;14.58;54.77
10652;BME280;5374;42.742;23.266;2023-05-03T08:32:56;95838.50;;;14.91;53.45
10652;BME280;5374;42.742;23.266;2023-05-03T08:35:44;95840.91;;;15.02;53.99
10652;BME280;5374;42.742;23.266;2023-05-03T08:41:25;95840.59;;;15.55;52.67
10652;BME280;5374;42.742;23.266;2023-05-03T08:44:19;95828.38;;;16.18;51.43
10652;BME280;5374;42.742;23.266;2023-05-03T08:47:06;95826.28;;;16.64;49.34
10652;BME280;5374;42.742;23.266;2023-05-03T08:49:54;95830.88;;;17.27;48.13
10652;BME280;5374;42.742;23.266;2023-05-03T08:52:42;95827.44;;;17.21;48.18
10652;BME280;5374;42.742;23.266;2023-05-03T08:55:29;95834.72;;;17.79;47.05
10652;BME280;5374;42.742;23.266;2023-05-03T08:58:16;95833.88;;;18.07;47.30
10652;BME280;5374;42.742;23.266;2023-05-03T09:01:06;95829.72;;;18.15;46.20
10652;BME280;5374;42.742;23.266;2023-05-03T09:03:54;95821.19;;;18.07;46.09
10652;BME280;5374;42.742;23.266;2023-05-03T09:06:41;95829.06;;;17.80;46.86
10652;BME280;5374;42.742;23.266;2023-05-03T09:09:30;95833.91;;;17.78;46.69
10652;BME280;5374;42.742;23.266;2023-05-03T09:12:33;95840.19;;;17.68;46.35
10652;BME280;5374;42.742;23.266;2023-05-03T09:15:21;95848.06;;;17.60;47.24
10652;BME280;5374;42.742;23.266;2023-05-03T09:18:11;95828.72;;;17.58;46.69
10652;BME280;5374;42.742;23.266;2023-05-03T09:21:00;95823.03;;;17.64;47.00
10652;BME280;5374;42.742;23.266;2023-05-03T09:23:47;95815.03;;;17.59;48.53
10652;BME280;5374;42.742;23.266;2023-05-03T09:26:34;95807.09;;;17.44;48.68
10652;BME280;5374;42.742;23.266;2023-05-03T09:29:29;95800.50;;;18.08;46.95
10652;BME280;5374;42.742;23.266;2023-05-03T09:32:16;95794.38;;;18.26;45.31
10652;BME280;5374;42.742;23.266;2023-05-03T09:35:11;95793.97;;;18.14;46.52
10652;BME280;5374;42.742;23.266;2023-05-03T09:37:59;95782.38;;;18.37;45.42
10652;BME280;5374;42.742;23.266;2023-05-03T09:40:47;95769.09;;;18.27;45.26
10652;BME280;5374;42.742;23.266;2023-05-03T09:43:34;95763.72;;;18.27;45.78
10652;BME280;5374;42.742;23.266;2023-05-03T09:46:22;95782.09;;;18.58;45.42
10652;BME280;5374;42.742;23.266;2023-05-03T09:49:10;95772.25;;;18.72;46.54
10652;BME280;5374;42.742;23.266;2023-05-03T09:51:59;95775.50;;;19.01;46.85
10652;BME280;5374;42.742;23.266;2023-05-03T09:54:47;95758.97;;;18.94;47.08
10652;BME280;5374;42.742;23.266;2023-05-03T09:57:36;95772.81;;;19.01;45.52
10652;BME280;5374;42.742;23.266;2023-05-03T10:00:23;95773.28;;;19.22;45.78
10652;BME280;5374;42.742;23.266;2023-05-03T10:03:24;95758.00;;;19.91;44.08
10652;BME280;5374;42.742;23.266;2023-05-03T10:06:23;95758.25;;;20.44;43.09
10652;BME280;5374;42.742;23.266;2023-05-03T10:09:14;95759.88;;;20.90;40.50
10652;BME280;5374;42.742;23.266;2023-05-03T10:12:07;95752.28;;;20.92;40.31
10652;BME280;5374;42.742;23.266;2023-05-03T10:14:58;95755.16;;;20.73;40.12
10652;BME280;5374;42.742;23.266;2023-05-03T10:17:48;95750.09;;;20.08;42.11
10652;BME280;5374;42.742;23.266;2023-05-03T10:20:41;95756.56;;;19.39;43.48
10652;BME280;5374;42.742;23.266;2023-05-03T10:23:30;95745.53;;;19.68;42.90
10652;BME280;5374;42.742;23.266;2023-05-03T10:26:18;95747.47;;;19.35;44.43
10652;BME280;5374;42.742;23.266;2023-05-03T10:32:35;95716.69;;;19.55;45.32
10652;BME280;5374;42.742;23.266;2023-05-03T10:35:26;95709.66;;;20.08;42.89
10652;BME280;5374;42.742;23.266;2023-05-03T10:38:14;95710.09;;;20.38;43.02
10652;BME280;5374;42.742;23.266;2023-05-03T10:41:01;95704.81;;;19.69;43.53
10652;BME280;5374;42.742;23.266;2023-05-03T10:43:52;95712.28;;;20.00;43.33
10652;BME280;5374;42.742;23.266;2023-05-03T10:46:42;95699.03;;;20.12;43.14
10652;BME280;5374;42.742;23.266;2023-05-03T10:49:29;95697.22;;;19.85;44.21
10652;BME280;5374;42.742;23.266;2023-05-03T10:52:47;95708.72;;;20.27;43.97
10652;BME280;5374;42.742;23.266;2023-05-03T10:55:34;95706.19;;;20.08;43.63
10652;BME280;5374;42.742;23.266;2023-05-03T10:58:22;95715.56;;;20.10;43.10
10652;BME280;5374;42.742;23.266;2023-05-03T11:01:12;95710.97;;;19.97;43.85
10652;BME280;5374;42.742;23.266;2023-05-03T11:04:04;95712.19;;;19.36;44.16
10652;BME280;5374;42.742;23.266;2023-05-03T11:06:53;95710.97;;;19.29;44.68
10652;BME280;5374;42.742;23.266;2023-05-03T11:09:41;95704.69;;;19.33;45.12
10652;BME280;5374;42.742;23.266;2023-05-03T11:12:28;95695.00;;;19.32;45.97
10652;BME280;5374;42.742;23.266;2023-05-03T11:15:15;95706.31;;;19.75;45.22
10652;BME280;5374;42.742;23.266;2023-05-03T11:18:05;95701.50;;;19.72;44.62
10652;BME280;5374;42.742;23.266;2023-05-03T11:20:52;95697.31;;;19.66;44.13
10652;BME280;5374;42.742;23.266;2023-05-03T11:23:41;95691.84;;;19.85;44.10
10652;BME280;5374;42.742;23.266;2023-05-03T11:26:28;95684.53;;;19.86;43.93
10652;BME280;5374;42.742;23.266;2023-05-03T11:29:23;95684.47;;;20.13;44.25
10652;BME280;5374;42.742;23.266;2023-05-03T11:32:10;95690.91;;;20.39;44.33
10652;BME280;5374;42.742;23.266;2023-05-03T11:35:02;95687.41;;;20.39;44.00
10652;BME280;5374;42.742;23.266;2023-05-03T11:37:50;95669.75;;;20.33;44.21
10652;BME280;5374;42.742;23.266;2023-05-03T11:40:37;95676.66;;;20.25;44.05
10652;BME280;5374;42.742;23.266;2023-05-03T11:43:24;95667.03;;;19.97;44.09
10652;BME280;5374;42.742;23.266;2023-05-03T11:46:17;95676.03;;;19.92;45.15
10652;BME280;5374;42.742;23.266;2023-05-03T11:49:06;95679.06;;;19.77;45.68
10652;BME280;5374;42.742;23.266;2023-05-03T11:51:55;95662.59;;;19.78;45.52
10652;BME280;5374;42.742;23.266;2023-05-03T11:54:42;95669.13;;;20.00;45.03
10652;BME280;5374;42.742;23.266;2023-05-03T11:57:30;95657.53;;;20.35;45.59
10652;BME280;5374;42.742;23.266;2023-05-03T12:00:19;95651.03;;;20.36;44.73
10652;BME280;5374;42.742;23.266;2023-05-03T12:03:07;95619.25;;;20.11;45.15
10652;BME280;5374;42.742;23.266;2023-05-03T12:05:55;95650.81;;;20.46;45.44
10652;BME280;5374;42.742;23.266;2023-05-03T12:08:44;95647.72;;;20.17;45.26
10652;BME280;5374;42.742;23.266;2023-05-03T12:11:39;95636.69;;;19.91;45.71
10652;BME280;5374;42.742;23.266;2023-05-03T12:14:26;95626.72;;;19.92;46.00
10652;BME280;5374;42.742;23.266;2023-05-03T12:17:13;95645.66;;;20.00;45.82
10652;BME280;5374;42.742;23.266;2023-05-03T12:20:14;95635.09;;;20.04;46.39
10652;BME280;5374;42.742;23.266;2023-05-03T12:23:03;95628.31;;;19.93;45.53
10652;BME280;5374;42.742;23.266;2023-05-03T12:25:53;95639.16;;;19.52;46.34
10652;BME280;5374;42.742;23.266;2023-05-03T12:28:41;95633.56;;;19.07;47.38
10652;BME280;5374;42.742;23.266;2023-05-03T12:31:28;95643.91;;;18.86;48.19
10652;BME280;5374;42.742;23.266;2023-05-03T12:34:15;95626.38;;;18.75;48.44
10652;BME280;5374;42.742;23.266;2023-05-03T12:37:02;95641.03;;;18.31;50.39
10652;BME280;5374;42.742;23.266;2023-05-03T12:39:50;95640.38;;;18.39;49.92
10652;BME280;5374;42.742;23.266;2023-05-03T12:42:38;95630.19;;;18.36;50.22
10652;BME280;5374;42.742;23.266;2023-05-03T12:45:26;95644.13;;;18.06;50.79
10652;BME280;5374;42.742;23.266;2023-05-03T12:48:15;95627.69;;;18.07;51.06
10652;BME280;5374;42.742;23.266;2023-05-03T12:51:03;95639.69;;;17.96;50.96
10652;BME280;5374;42.742;23.266;2023-05-03T12:53:50;95627.00;;;17.83;52.27
10652;BME280;5374;42.742;23.266;2023-05-03T12:56:37;95623.25;;;17.60;52.62
10652;BME280;5374;42.742;23.266;2023-05-03T12:59:26;95622.88;;;17.48;53.50
10652;BME280;5374;42.742;23.266;2023-05-03T13:02:13;95615.38;;;17.45;54.22
10652;BME280;5374;42.742;23.266;2023-05-03T13:05:00;95636.53;;;17.28;54.10
10652;BME280;5374;42.742;23.266;2023-05-03T13:07:47;95624.06;;;16.94;55.18
10652;BME280;5374;42.742;23.266;2023-05-03T13:10:35;95589.47;;;16.69;55.77
10652;BME280;5374;42.742;23.266;2023-05-03T13:13:22;95614.97;;;16.90;56.75
10652;BME280;5374;42.742;23.266;2023-05-03T13:16:12;95610.56;;;16.47;60.09
10652;BME280;5374;42.742;23.266;2023-05-03T13:18:59;95612.25;;;16.37;61.46
10652;BME280;5374;42.742;23.266;2023-05-03T13:21:46;95614.28;;;16.17;62.03
10652;BME280;5374;42.742;23.266;2023-05-03T13:24:34;95618.53;;;15.84;63.11
10652;BME280;5374;42.742;23.266;2023-05-03T13:27:21;95632.19;;;15.82;63.27
10652;BME280;5374;42.742;23.266;2023-05-03T13:30:09;95638.97;;;15.75;64.26
10652;BME280;5374;42.742;23.266;2023-05-03T13:32:58;95647.72;;;15.85;64.69
10652;BME280;5374;42.742;23.266;2023-05-03T13:35:45;95643.72;;;15.83;63.94
10652;BME280;5374;42.742;23.266;2023-05-03T13:38:32;95627.13;;;15.31;65.85
10652;BME280;5374;42.742;23.266;2023-05-03T13:41:19;95648.19;;;15.38;68.90
10652;BME280;5374;42.742;23.266;2023-05-03T13:44:07;95645.75;;;15.47;70.11
10652;BME280;5374;42.742;23.266;2023-05-03T13:46:56;95659.47;;;15.35;70.11
10652;BME280;5374;42.742;23.266;2023-05-03T13:49:44;95670.53;;;15.08;74.89
10652;BME280;5374;42.742;23.266;2023-05-03T13:52:31;95659.59;;;14.94;81.92
10652;BME280;5374;42.742;23.266;2023-05-03T13:55:19;95655.91;;;14.40;90.48
10652;BME280;5374;42.742;23.266;2023-05-03T13:58:06;95658.09;;;14.43;98.38
10652;BME280;5374;42.742;23.266;2023-05-03T14:00:53;95677.31;;;14.55;100.00
10652;BME280;5374;42.742;23.266;2023-05-03T14:03:40;95658.56;;;14.34;100.00
10652;BME280;5374;42.742;23.266;2023-05-03T14:06:30;95672.47;;;14.16;100.00
10652;BME280;5374;42.742;23.266;2023-05-03T14:09:17;95669.69;;;13.65;100.00
10652;BME280;5374;42.742;23.266;2023-05-03T14:12:05;95672.88;;;13.62;100.00
10652;BME280;5374;42.742;23.266;2023-05-03T14:14:53;95657.41;;;13.54;100.00
10652;BME280;5374;42.742;23.266;2023-05-03T14:17:41;95652.53;;;13.36;100.00
10652;BME280;5374;42.742;23.266;2023-05-03T14:20:28;95657.09;;;13.41;100.00
10652;BME280;5374;42.742;23.266;2023-05-03T14:23:17;95647.22;;;13.41;100.00
10652;BME280;5374;42.742;23.266;2023-05-03T14:26:04;95638.41;;;13.30;100.00
10652;BME280;5374;42.742;23.266;2023-05-03T14:28:51;95646.13;;;13.32;100.00
10652;BME280;5374;42.742;23.266;2023-05-03T14:31:38;95655.94;;;13.21;100.00
10652;BME280;5374;42.742;23.266;2023-05-03T14:34:25;95654.31;;;13.15;100.00
10652;BME280;5374;42.742;23.266;2023-05-03T14:37:13;95657.78;;;13.16;100.00
10652;BME280;5374;42.742;23.266;2023-05-03T14:40:03;95672.53;;;13.33;100.00
10652;BME280;5374;42.742;23.266;2023-05-03T14:42:51;95665.81;;;13.21;100.00
10652;BME280;5374;42.742;23.266;2023-05-03T14:45:38;95658.22;;;13.02;100.00
10652;BME280;5374;42.742;23.266;2023-05-03T14:48:25;95645.94;;;12.96;100.00
10652;BME280;5374;42.742;23.266;2023-05-03T14:51:12;95641.69;;;13.00;100.00
10652;BME280;5374;42.742;23.266;2023-05-03T14:54:00;95646.00;;;13.07;100.00
10652;BME280;5374;42.742;23.266;2023-05-03T14:56:48;95662.00;;;13.12;100.00
10652;BME280;5374;42.742;23.266;2023-05-03T14:59:35;95673.28;;;12.77;100.00